createdAt,value
2023-05-13T00:06:47.466Z,43.22
2023-05-13T00:15:11.085Z,43.28
2023-05-13T00:23:33.990Z,43.19
2023-05-13T00:31:57.075Z,43.22
2023-05-13T00:40:24.706Z,43.22
2023-05-13T00:48:47.812Z,43.20
2023-05-13T00:57:10.646Z,43.28
2023-05-13T01:06:02.649Z,43.24
2023-05-13T01:14:32.945Z,43.20
2023-05-13T01:22:57.084Z,43.26
2023-05-13T01:31:22.270Z,43.23
2023-05-13T01:39:46.890Z,43.38
2023-05-13T01:48:10.653Z,43.20
2023-05-13T01:56:39.846Z,43.28
2023-05-13T02:05:02.954Z,43.21
2023-05-13T02:13:26.907Z,43.24
2023-05-13T02:21:49.758Z,43.24
2023-05-13T02:30:13.184Z,43.37
2023-05-13T02:38:36.261Z,43.27
2023-05-13T02:46:59.776Z,43.26
2023-05-13T02:55:23.397Z,43.31
2023-05-13T03:03:46.576Z,43.26
2023-05-13T03:12:10.111Z,43.30
2023-05-13T03:20:33.227Z,43.34
2023-05-13T03:28:57.598Z,43.30
2023-05-13T03:37:20.950Z,43.31
2023-05-13T03:45:47.727Z,43.44
2023-05-13T03:54:13.041Z,43.89
2023-05-13T04:02:36.471Z,44.24
2023-05-13T04:10:59.689Z,44.47
2023-05-13T04:19:22.529Z,44.55
2023-05-13T04:27:47.608Z,44.48
2023-05-13T04:36:20.876Z,44.53
2023-05-13T04:44:43.981Z,44.70
2023-05-13T04:53:07.405Z,44.90
2023-05-13T05:01:30.593Z,44.99
2023-05-13T05:09:53.883Z,45.31
2023-05-13T05:18:17.459Z,45.54
2023-05-13T05:26:43.814Z,45.71
2023-05-13T05:35:07.948Z,45.91
2023-05-13T05:43:31.272Z,46.33
2023-05-13T05:51:54.277Z,46.42
2023-05-13T06:00:19.036Z,46.58
2023-05-13T06:08:41.926Z,46.64
2023-05-13T06:17:05.002Z,47.06
2023-05-13T06:25:28.086Z,47.17
2023-05-13T06:33:51.041Z,47.32
2023-05-13T06:42:14.458Z,47.61
2023-05-13T06:50:42.221Z,47.66
2023-05-13T06:59:05.140Z,47.70
2023-05-13T07:07:28.044Z,47.71
2023-05-13T07:15:50.993Z,47.86
2023-05-13T07:24:14.765Z,47.99
2023-05-13T07:32:38.625Z,47.91
2023-05-13T07:41:01.741Z,48.06
2023-05-13T07:49:24.620Z,47.93
2023-05-13T07:57:47.567Z,47.93
2023-05-13T08:06:11.405Z,48.28
2023-05-13T08:14:34.727Z,48.23
2023-05-13T08:22:58.705Z,48.32
2023-05-13T08:31:21.777Z,48.52
2023-05-13T08:39:45.429Z,48.23
2023-05-13T08:48:10.070Z,48.36
2023-05-13T08:56:33.226Z,48.38
2023-05-13T09:05:00.296Z,48.43
2023-05-13T09:13:23.367Z,48.53
2023-05-13T09:21:46.358Z,48.35
2023-05-13T09:30:11.070Z,48.52
2023-05-13T09:38:39.181Z,48.40
2023-05-13T09:47:02.970Z,48.42
2023-05-13T09:55:26.117Z,48.47
2023-05-13T10:03:49.088Z,48.29
2023-05-13T10:12:14.977Z,48.41
2023-05-13T10:20:39.169Z,48.26
2023-05-13T10:29:02.570Z,48.23
2023-05-13T10:37:44.573Z,48.09
2023-05-13T10:46:11.500Z,48.19
2023-05-13T10:54:42.320Z,47.91
2023-05-13T11:03:16.002Z,47.90
2023-05-13T11:11:39.751Z,47.86
2023-05-13T11:20:02.601Z,47.85
2023-05-13T11:29:05.198Z,47.85
2023-05-13T11:37:30.911Z,47.84
2023-05-13T11:45:55.525Z,47.82
2023-05-13T11:54:18.724Z,47.75
2023-05-13T12:02:41.728Z,47.73
2023-05-13T12:11:06.291Z,47.77
2023-05-13T12:19:29.274Z,47.49
2023-05-13T12:27:53.113Z,47.51
2023-05-13T12:36:25.584Z,47.25
2023-05-13T12:44:48.786Z,47.65
2023-05-13T12:53:11.688Z,47.35
2023-05-13T13:01:35.535Z,47.28
2023-05-13T13:09:58.438Z,47.31
2023-05-13T13:18:21.573Z,47.15
2023-05-13T13:26:44.445Z,47.14
2023-05-13T13:35:07.578Z,47.15
2023-05-13T13:43:30.441Z,47.15
2023-05-13T13:51:53.473Z,47.08
2023-05-13T14:00:16.919Z,47.18
2023-05-13T14:08:39.740Z,47.07
2023-05-13T14:17:02.605Z,47.18
2023-05-13T14:25:25.589Z,46.83
2023-05-13T14:33:48.489Z,46.69
2023-05-13T14:42:11.868Z,46.83
2023-05-13T14:50:36.050Z,46.76
2023-05-13T14:58:59.193Z,46.70
2023-05-13T15:07:22.171Z,46.79
2023-05-13T15:15:45.668Z,46.70
2023-05-13T15:24:08.653Z,46.62
2023-05-13T15:32:31.735Z,46.50
2023-05-13T15:40:55.097Z,46.44
2023-05-13T15:49:18.070Z,46.58
2023-05-13T15:57:41.225Z,46.59
2023-05-13T16:06:04.182Z,46.43
2023-05-13T16:14:27.131Z,46.23
2023-05-13T16:22:49.965Z,46.07
2023-05-13T16:31:12.857Z,45.96
2023-05-13T16:39:36.436Z,45.79
2023-05-13T16:47:59.340Z,45.79
2023-05-13T16:56:22.475Z,45.75
2023-05-13T17:04:45.462Z,45.72
2023-05-13T17:13:08.413Z,45.57
2023-05-13T17:21:31.282Z,45.53
2023-05-13T17:29:54.332Z,45.40
2023-05-13T17:38:17.247Z,45.34
2023-05-13T17:46:40.137Z,45.39
2023-05-13T17:55:02.962Z,45.24
2023-05-13T18:03:25.895Z,45.08
2023-05-13T18:11:48.796Z,45.10
2023-05-13T18:20:12.709Z,44.83
2023-05-13T18:28:35.719Z,44.74
2023-05-13T18:36:58.597Z,44.71
2023-05-13T18:45:21.919Z,44.61
2023-05-13T18:53:45.863Z,44.52
2023-05-13T19:02:08.972Z,44.44
2023-05-13T19:10:38.994Z,44.39
2023-05-13T19:19:02.904Z,44.25
2023-05-13T19:27:26.292Z,44.18
2023-05-13T19:35:49.781Z,44.10
2023-05-13T19:44:12.799Z,43.97
2023-05-13T19:52:36.313Z,44.03
2023-05-13T20:00:59.239Z,43.94
2023-05-13T20:09:22.297Z,43.79
2023-05-13T20:17:45.629Z,43.73
2023-05-13T20:26:08.980Z,43.75
2023-05-13T20:34:33.209Z,43.71
2023-05-13T20:42:56.037Z,43.66
2023-05-13T20:51:19.128Z,43.56
2023-05-13T20:59:42.154Z,43.47
2023-05-13T21:08:05.060Z,43.51
2023-05-13T21:16:28.605Z,43.31
2023-05-13T21:24:51.759Z,43.45
2023-05-13T21:33:14.650Z,43.38
2023-05-13T21:41:37.921Z,43.41
2023-05-13T21:50:00.910Z,43.34
2023-05-13T21:58:23.802Z,43.31
2023-05-13T22:06:46.791Z,43.40
2023-05-13T22:15:10.675Z,43.25
2023-05-13T22:23:34.517Z,43.47
2023-05-13T22:31:57.659Z,43.43
2023-05-13T22:40:20.828Z,43.40
2023-05-13T22:48:44.039Z,43.34
2023-05-13T22:57:06.952Z,43.18
2023-05-13T23:05:29.755Z,43.34
2023-05-13T23:13:52.652Z,43.34
2023-05-13T23:22:16.119Z,43.36
2023-05-13T23:30:39.753Z,43.28
2023-05-13T23:39:02.984Z,43.25
2023-05-13T23:47:25.927Z,43.36
2023-05-13T23:55:49.001Z,43.22
